Forside
METAR-TAF:

METAR-TAF

Lufthavne :

Halmstad, Sverige

Breddekreds: 56-41N, længdekreds: 012-50E, højde: 30 m

Aktuelle vejr

Denne rapport blev lavet for 30 minutter siden, kl. 23:50 UTC
Vind stille
Temperatur 2°C
Fugtighed 100%
Tryk 1026 hPa
Sigt: 9000 m

METAR: ESMT 222350Z AUTO 00000KT 9000 OVC002/// 02/02 Q1026

Tid: 01:20 (00:20 UTC)

Vejrudsigter

Denne rapport blev lavet for 18 timer og 15 minutter siden, kl. 06:05 UTC
Foreløbig gælder fra 22 på 07 UTC til 22 på 10 UTC
Vind 3 kt fra sydøst
Sigt 10 km eller mere
Brudte skyer i en højde af 4800 ft

TAF: ESMT 220605Z 2207/2210 13003KT 9999 BKN048

Vejrobservationer og prognoser fra mere end 4000 lufthavne (METAR og TAF).

De gule og røde prikker repræsenterer de meteorologiske stationer.

Flyt musen over at se navnet på stationen.

Så klik over at se vejr observationer og prognoser.

At skifte det kort: Klik på de grønne knapper med et sort kors for at zoome ind; på den grønne knap med en bindestreg for at zoome ud; eller på de grønne pile for tilstødende kort.


METAR-TAF: